TimeEDT,TemperatureF,Dew PointF,Humidity,Sea Level PressureIn,VisibilityMPH,Wind Direction,Wind SpeedMPH,Gust SpeedMPH,PrecipitationIn,Events,Conditions,WindDirDegrees,DateUTC
12:53 AM,52.0,28.9,41,29.94,10.0,South,9.2,-,N/A,,Clear,190,2013-03-11 04:53:00
1:53 AM,51.1,28.0,41,29.93,10.0,South,10.4,-,N/A,,Clear,190,2013-03-11 05:53:00
2:53 AM,51.1,28.0,41,29.92,10.0,South,9.2,-,N/A,,Clear,190,2013-03-11 06:53:00
3:53 AM,51.1,28.0,41,29.89,10.0,South,9.2,-,N/A,,Clear,190,2013-03-11 07:53:00
4:53 AM,50.0,28.9,44,29.88,10.0,South,10.4,-,N/A,,Clear,190,2013-03-11 08:53:00
5:53 AM,50.0,28.9,44,29.87,10.0,South,9.2,-,N/A,,Scattered Clouds,180,2013-03-11 09:53:00
6:53 AM,51.1,28.9,43,29.90,10.0,South,8.1,-,N/A,,Mostly Cloudy,190,2013-03-11 10:53:00
7:00 AM,51.8,28.4,41,29.88,10.0,South,6.9,-,N/A,,Overcast,190,2013-03-11 11:00:00
7:53 AM,51.1,28.9,43,29.90,10.0,South,9.2,-,N/A,,Overcast,180,2013-03-11 11:53:00
8:53 AM,51.1,28.9,43,29.91,10.0,South,10.4,-,N/A,,Overcast,190,2013-03-11 12:53:00
9:53 AM,51.1,28.9,43,29.89,10.0,South,13.8,-,N/A,,Overcast,180,2013-03-11 13:53:00
10:53 AM,52.0,28.9,41,29.90,10.0,South,10.4,-,N/A,,Overcast,190,2013-03-11 14:53:00
11:53 AM,54.0,30.0,40,29.87,10.0,South,10.4,-,N/A,,Overcast,190,2013-03-11 15:53:00
12:53 PM,57.0,30.0,36,29.83,10.0,South,15.0,-,N/A,,Overcast,180,2013-03-11 16:53:00
1:53 PM,61.0,32.0,34,29.78,10.0,South,13.8,-,N/A,,Overcast,190,2013-03-11 17:53:00
2:53 PM,61.0,30.9,32,29.75,10.0,South,11.5,-,N/A,,Overcast,190,2013-03-11 18:53:00
3:53 PM,59.0,30.0,33,29.73,10.0,South,12.7,-,N/A,,Overcast,170,2013-03-11 19:53:00
4:28 PM,57.2,32.0,38,29.72,10.0,South,13.8,-,0.00,Rain,Light Rain,190,2013-03-11 20:28:00
4:53 PM,55.9,36.0,47,29.69,10.0,SE,10.4,-,0.00,Rain,Light Rain,130,2013-03-11 20:53:00
5:37 PM,57.2,33.8,41,29.65,10.0,SSE,9.2,-,0.00,,Overcast,160,2013-03-11 21:37:00
5:53 PM,55.9,32.0,40,29.68,10.0,South,11.5,-,0.00,,Overcast,170,2013-03-11 21:53:00
6:32 PM,55.4,30.2,38,29.63,10.0,SSE,20.7,27.6,0.00,Rain,Light Rain,160,2013-03-11 22:32:00
6:53 PM,55.4,32.0,41,29.63,10.0,SSE,12.7,23.0,N/A,Rain,Light Rain,160,2013-03-11 22:53:00
7:53 PM,53.1,34.0,48,29.64,10.0,SSE,9.2,-,0.00,Rain,Light Rain,160,2013-03-11 23:53:00
8:53 PM,52.0,33.1,49,29.62,10.0,South,17.3,26.5,0.00,Rain,Light Rain,170,2013-03-12 00:53:00
9:53 PM,50.0,37.9,63,29.65,9.0,South,15.0,24.2,0.04,Rain,Light Rain,190,2013-03-12 01:53:00
10:20 PM,46.4,39.2,76,29.68,9.0,WSW,17.3,33.4,N/A,Rain,Light Rain,250,2013-03-12 02:20:00
10:53 PM,45.0,41.0,86,29.69,10.0,WSW,9.2,-,N/A,Rain,Light Rain,240,2013-03-12 02:53:00
11:53 PM,46.0,43.0,89,29.70,9.0,SW,12.7,-,0.02,Rain,Light Rain,230,2013-03-12 03:53:00